createdAt,value
2023-05-11T00:01:13.965Z,100.00
2023-05-11T00:03:41.502Z,100.00
2023-05-11T00:06:08.999Z,100.00
2023-05-11T00:08:36.602Z,100.00
2023-05-11T00:11:08.136Z,100.00
2023-05-11T00:13:35.833Z,100.00
2023-05-11T00:16:04.177Z,100.00
2023-05-11T00:18:31.884Z,100.00
2023-05-11T00:20:59.282Z,100.00
2023-05-11T00:23:26.812Z,100.00
2023-05-11T00:25:54.481Z,100.00
2023-05-11T00:28:22.993Z,100.00
2023-05-11T00:30:50.580Z,100.00
2023-05-11T00:33:18.849Z,100.00
2023-05-11T00:35:49.214Z,100.00
2023-05-11T00:38:17.021Z,100.00
2023-05-11T00:40:44.576Z,100.00
2023-05-11T00:43:12.862Z,100.00
2023-05-11T00:45:40.709Z,100.00
2023-05-11T00:48:08.840Z,100.00
2023-05-11T00:50:36.438Z,100.00
2023-05-11T00:53:04.139Z,100.00
2023-05-11T00:55:31.595Z,100.00
2023-05-11T00:57:59.783Z,100.00
2023-05-11T01:00:27.380Z,100.00
2023-05-11T01:02:55.094Z,100.00
2023-05-11T01:05:22.731Z,100.00
2023-05-11T01:08:06.105Z,100.00
2023-05-11T01:10:57.143Z,100.00
2023-05-11T01:13:33.811Z,100.00
2023-05-11T01:16:09.650Z,100.00
2023-05-11T01:18:51.957Z,100.00
2023-05-11T01:21:20.499Z,100.00
2023-05-11T01:24:11.622Z,100.00
2023-05-11T01:27:03.589Z,100.00
2023-05-11T01:29:47.201Z,100.00
2023-05-11T01:32:21.104Z,100.00
2023-05-11T01:34:58.689Z,100.00
2023-05-11T01:37:26.805Z,100.00
2023-05-11T01:39:58.973Z,100.00
2023-05-11T01:42:35.701Z,100.00
2023-05-11T01:45:06.636Z,100.00
2023-05-11T01:47:37.441Z,100.00
2023-05-11T01:50:07.526Z,100.00
2023-05-11T01:52:37.594Z,100.00
2023-05-11T01:55:06.510Z,100.00
2023-05-11T01:57:36.740Z,100.00
2023-05-11T02:00:05.532Z,100.00
2023-05-11T02:02:41.332Z,100.00
2023-05-11T02:05:10.080Z,100.00
2023-05-11T02:07:39.104Z,100.00
2023-05-11T02:10:07.782Z,100.00
2023-05-11T02:12:36.971Z,100.00
2023-05-11T02:15:06.802Z,100.00
2023-05-11T02:17:34.920Z,100.00
2023-05-11T02:20:04.661Z,100.00
2023-05-11T02:22:35.951Z,100.00
2023-05-11T02:25:05.338Z,100.00
2023-05-11T02:27:33.199Z,100.00
2023-05-11T02:30:00.727Z,100.00
2023-05-11T02:32:30.913Z,100.00
2023-05-11T02:35:13.150Z,100.00
2023-05-11T02:37:45.160Z,100.00
2023-05-11T02:40:17.699Z,100.00
2023-05-11T02:42:51.452Z,100.00
2023-05-11T02:45:19.670Z,100.00
2023-05-11T02:47:56.343Z,100.00
2023-05-11T02:50:30.402Z,100.00
2023-05-11T02:53:03.909Z,100.00
2023-05-11T02:55:32.244Z,100.00
2023-05-11T02:58:00.136Z,100.00
2023-05-11T03:00:28.569Z,100.00
2023-05-11T03:02:56.254Z,100.00
2023-05-11T03:05:24.429Z,100.00
2023-05-11T03:07:54.813Z,100.00
2023-05-11T03:10:24.084Z,100.00
2023-05-11T03:12:51.765Z,100.00
2023-05-11T03:15:21.722Z,100.00
2023-05-11T03:17:53.248Z,100.00
2023-05-11T03:20:22.806Z,100.00
2023-05-11T03:22:51.972Z,100.00
2023-05-11T03:25:21.060Z,100.00
2023-05-11T03:27:52.849Z,100.00
2023-05-11T03:30:21.573Z,100.00
2023-05-11T03:32:52.742Z,100.00
2023-05-11T03:35:23.282Z,100.00
2023-05-11T03:37:52.515Z,100.00
2023-05-11T03:40:23.404Z,100.00
2023-05-11T03:42:55.509Z,100.00
2023-05-11T03:45:28.555Z,100.00
2023-05-11T03:47:57.420Z,100.00
2023-05-11T03:50:25.740Z,100.00
2023-05-11T03:52:56.006Z,100.00
2023-05-11T03:55:23.682Z,100.00
2023-05-11T03:57:51.844Z,100.00
2023-05-11T04:00:19.656Z,100.00
2023-05-11T04:02:47.947Z,100.00
2023-05-11T04:05:15.975Z,100.00
2023-05-11T04:07:46.432Z,100.00
2023-05-11T04:10:13.905Z,100.00
2023-05-11T04:12:41.422Z,100.00
2023-05-11T04:15:09.190Z,100.00
2023-05-11T04:17:36.622Z,100.00
2023-05-11T04:20:04.449Z,100.00
2023-05-11T04:22:31.876Z,100.00
2023-05-11T04:24:59.498Z,100.00
2023-05-11T04:27:27.022Z,100.00
2023-05-11T04:29:54.526Z,100.00
2023-05-11T04:32:22.082Z,100.00
2023-05-11T04:34:49.657Z,100.00
2023-05-11T04:37:21.792Z,100.00
2023-05-11T04:39:49.782Z,100.00
2023-05-11T04:42:17.627Z,100.00
2023-05-11T04:44:53.233Z,100.00
2023-05-11T04:47:20.904Z,100.00
2023-05-11T04:49:49.280Z,100.00
2023-05-11T04:52:16.747Z,100.00
2023-05-11T04:54:47.441Z,100.00
2023-05-11T04:57:15.076Z,100.00
2023-05-11T04:59:42.628Z,100.00
2023-05-11T05:02:11.726Z,100.00
2023-05-11T05:04:39.236Z,100.00
2023-05-11T05:07:07.626Z,100.00
2023-05-11T05:09:35.016Z,100.00
2023-05-11T05:12:02.677Z,100.00
2023-05-11T05:14:30.114Z,100.00
2023-05-11T05:16:57.723Z,100.00
2023-05-11T05:19:25.213Z,100.00
2023-05-11T05:21:52.860Z,100.00
2023-05-11T05:24:20.766Z,100.00
2023-05-11T05:26:48.346Z,100.00
2023-05-11T05:29:15.878Z,100.00
2023-05-11T05:31:43.387Z,100.00
2023-05-11T05:34:10.845Z,100.00
2023-05-11T05:36:39.389Z,100.00
2023-05-11T05:39:12.134Z,100.00
2023-05-11T05:41:42.214Z,100.00
2023-05-11T05:44:10.800Z,100.00
2023-05-11T05:46:39.427Z,100.00
2023-05-11T05:49:07.321Z,100.00
2023-05-11T05:51:35.946Z,100.00
2023-05-11T05:54:03.779Z,100.00
2023-05-11T05:56:32.161Z,100.00
2023-05-11T05:58:59.921Z,100.00
2023-05-11T06:01:28.443Z,100.00
2023-05-11T06:03:56.556Z,100.00
2023-05-11T06:06:26.150Z,100.00
2023-05-11T06:08:54.122Z,100.00
2023-05-11T06:11:21.960Z,100.00
2023-05-11T06:13:49.898Z,100.00
2023-05-11T06:16:17.472Z,100.00
2023-05-11T06:18:46.893Z,100.00
2023-05-11T06:21:15.937Z,100.00
2023-05-11T06:23:43.329Z,100.00
2023-05-11T06:26:11.988Z,100.00
2023-05-11T06:28:40.093Z,100.00
2023-05-11T06:31:11.942Z,100.00
2023-05-11T06:33:41.136Z,99.93
2023-05-11T06:36:14.993Z,90.38
2023-05-11T06:38:42.647Z,77.65
2023-05-11T06:41:11.711Z,70.23
2023-05-11T06:43:39.437Z,66.07
2023-05-11T06:46:19.320Z,60.47
2023-05-11T06:48:47.547Z,58.10
2023-05-11T06:51:14.970Z,55.15
2023-05-11T06:53:43.842Z,55.36
2023-05-11T06:56:11.591Z,54.39
2023-05-11T06:58:39.256Z,52.71
2023-05-11T07:01:08.065Z,51.45
2023-05-11T07:03:35.854Z,50.29
2023-05-11T07:06:03.687Z,48.55
2023-05-11T07:08:31.197Z,49.18
2023-05-11T07:10:58.733Z,49.60
2023-05-11T07:13:26.335Z,50.42
2023-05-11T07:15:56.628Z,51.76
2023-05-11T07:18:25.036Z,53.36
2023-05-11T07:20:52.691Z,54.11
2023-05-11T07:23:27.254Z,55.81
2023-05-11T07:25:58.321Z,56.36
2023-05-11T07:28:29.003Z,56.36
2023-05-11T07:30:56.557Z,57.25
2023-05-11T07:33:23.972Z,57.71
2023-05-11T07:35:52.262Z,57.00
2023-05-11T07:38:19.955Z,57.71
2023-05-11T07:40:47.716Z,58.29
2023-05-11T07:43:15.186Z,57.40
2023-05-11T07:45:42.758Z,56.21
2023-05-11T07:48:10.226Z,54.62
2023-05-11T07:50:38.054Z,53.25
2023-05-11T07:53:05.650Z,54.58
2023-05-11T07:55:33.477Z,56.26
2023-05-11T07:58:00.925Z,58.35
2023-05-11T08:00:28.696Z,57.87
2023-05-11T08:02:56.860Z,57.69
2023-05-11T08:05:24.746Z,57.48
2023-05-11T08:07:52.308Z,57.41
2023-05-11T08:10:20.017Z,56.04
2023-05-11T08:12:47.526Z,52.22
2023-05-11T08:15:14.960Z,52.19
2023-05-11T08:17:43.401Z,53.80
2023-05-11T08:20:11.380Z,53.11
2023-05-11T08:22:38.801Z,54.27
2023-05-11T08:25:07.269Z,53.93
2023-05-11T08:27:34.691Z,54.13
2023-05-11T08:30:02.406Z,53.91
2023-05-11T08:32:30.524Z,54.61
2023-05-11T08:34:58.431Z,53.94
2023-05-11T08:37:26.152Z,54.55
2023-05-11T08:39:53.604Z,56.92
2023-05-11T08:42:23.931Z,57.53
2023-05-11T08:44:55.865Z,57.58
2023-05-11T08:47:24.320Z,57.36
2023-05-11T08:49:53.147Z,56.42
2023-05-11T08:52:20.887Z,54.91
2023-05-11T08:54:48.595Z,52.14
2023-05-11T08:57:17.621Z,50.51
2023-05-11T08:59:48.718Z,49.76
2023-05-11T09:02:19.398Z,48.63
2023-05-11T09:04:49.189Z,46.95
2023-05-11T09:07:17.710Z,44.92
2023-05-11T09:09:47.152Z,45.15
2023-05-11T09:12:15.541Z,45.85
2023-05-11T09:14:43.903Z,47.26
2023-05-11T09:17:11.750Z,48.23
2023-05-11T09:20:00.196Z,48.63
2023-05-11T09:22:30.609Z,48.42
2023-05-11T09:25:02.091Z,49.50
2023-05-11T09:27:29.852Z,49.75
2023-05-11T09:29:57.277Z,50.04
2023-05-11T09:32:24.722Z,50.22
2023-05-11T09:34:52.296Z,50.40
2023-05-11T09:37:19.855Z,52.05
2023-05-11T09:42:26.087Z,52.94
2023-05-11T09:44:54.120Z,52.80
2023-05-11T09:47:22.800Z,50.63
2023-05-11T09:49:50.318Z,49.35
2023-05-11T09:52:19.182Z,47.13
2023-05-11T09:54:52.731Z,46.76
2023-05-11T09:57:28.824Z,45.56
2023-05-11T09:59:57.903Z,44.77
2023-05-11T10:02:32.360Z,42.34
2023-05-11T10:05:10.791Z,41.86
2023-05-11T10:07:38.908Z,39.63
2023-05-11T10:10:08.422Z,38.90
2023-05-11T10:12:38.658Z,37.36
2023-05-11T10:15:08.707Z,38.12
2023-05-11T10:17:37.175Z,39.28
2023-05-11T10:20:06.755Z,38.14
2023-05-11T10:22:34.402Z,38.95
2023-05-11T10:25:03.293Z,39.75
2023-05-11T10:27:32.008Z,40.82
2023-05-11T10:29:59.552Z,41.12
2023-05-11T10:32:28.690Z,42.86
2023-05-11T10:34:56.876Z,44.65
2023-05-11T10:37:24.580Z,45.81
2023-05-11T10:39:52.293Z,47.04
2023-05-11T10:42:38.421Z,48.93
2023-05-11T10:45:26.657Z,49.95
2023-05-11T10:48:12.928Z,51.28
2023-05-11T10:50:49.724Z,53.57
2023-05-11T10:54:00.243Z,54.48
2023-05-11T10:56:33.528Z,57.31
2023-05-11T10:59:35.572Z,61.26
2023-05-11T11:02:04.190Z,61.34
2023-05-11T11:04:51.935Z,61.13
2023-05-11T11:07:20.113Z,65.25
2023-05-11T11:10:05.224Z,70.05
2023-05-11T11:12:35.167Z,75.08
2023-05-11T11:15:07.330Z,79.03
2023-05-11T11:17:36.455Z,82.60
2023-05-11T11:20:08.510Z,84.15
2023-05-11T11:22:39.212Z,86.54
2023-05-11T11:25:13.684Z,84.63
2023-05-11T11:27:41.169Z,85.82
2023-05-11T11:30:22.556Z,86.53
2023-05-11T11:33:10.457Z,86.75
2023-05-11T11:35:43.632Z,86.87
2023-05-11T11:38:19.016Z,84.53
2023-05-11T11:40:55.163Z,81.71
2023-05-11T11:43:24.921Z,81.29
2023-05-11T11:46:00.656Z,77.47
2023-05-11T11:48:36.261Z,75.74
2023-05-11T11:51:10.676Z,66.74
2023-05-11T11:53:38.403Z,67.72
2023-05-11T11:56:11.431Z,65.04
2023-05-11T11:58:42.469Z,63.43
2023-05-11T12:01:21.366Z,60.19
2023-05-11T12:04:23.167Z,59.93
2023-05-11T12:06:57.966Z,55.55
2023-05-11T12:09:27.204Z,56.10
2023-05-11T12:11:55.224Z,56.21
2023-05-11T12:14:23.106Z,58.20
2023-05-11T12:17:01.663Z,55.48
2023-05-11T12:19:29.234Z,57.47
2023-05-11T12:21:57.053Z,56.13
2023-05-11T12:24:24.642Z,52.25
2023-05-11T12:26:57.136Z,54.94
2023-05-11T12:29:24.886Z,54.78
2023-05-11T12:31:52.587Z,54.57
2023-05-11T12:34:22.965Z,57.66
2023-05-11T12:36:54.175Z,58.12
2023-05-11T12:39:26.782Z,56.38
2023-05-11T12:41:56.611Z,55.79
2023-05-11T12:44:26.714Z,57.49
2023-05-11T12:46:54.905Z,58.93
2023-05-11T12:49:26.333Z,59.48
2023-05-11T12:51:55.155Z,58.39
2023-05-11T12:54:30.091Z,58.38
2023-05-11T12:56:58.360Z,58.35
2023-05-11T12:59:40.336Z,54.73
2023-05-11T13:02:18.897Z,54.71
2023-05-11T13:04:48.025Z,55.87
2023-05-11T13:07:25.157Z,55.09
2023-05-11T13:10:00.604Z,55.97
2023-05-11T13:12:31.952Z,59.42
2023-05-11T13:15:12.876Z,60.12
2023-05-11T13:17:42.796Z,59.20
2023-05-11T13:20:21.716Z,62.79
2023-05-11T13:22:50.996Z,67.98
2023-05-11T13:25:21.319Z,71.41
2023-05-11T13:27:49.071Z,74.75
2023-05-11T13:30:16.628Z,79.73
2023-05-11T13:32:44.213Z,80.52
2023-05-11T13:35:11.728Z,87.21
2023-05-11T13:37:39.257Z,85.85
2023-05-11T13:40:10.466Z,87.92
2023-05-11T13:42:37.972Z,91.06
2023-05-11T13:45:05.897Z,88.31
2023-05-11T13:47:34.543Z,91.78
2023-05-11T13:50:02.293Z,89.76
2023-05-11T13:52:30.194Z,89.56
2023-05-11T13:54:57.609Z,89.22
2023-05-11T13:57:25.113Z,90.96
2023-05-11T13:59:52.521Z,86.73
2023-05-11T14:02:20.079Z,85.59
2023-05-11T14:04:47.606Z,83.17
2023-05-11T14:07:15.669Z,77.52
2023-05-11T14:09:44.020Z,76.98
2023-05-11T14:12:11.466Z,73.31
2023-05-11T14:14:39.090Z,76.20
2023-05-11T14:17:06.802Z,73.61
2023-05-11T14:19:34.298Z,78.83
2023-05-11T14:22:01.859Z,77.93
2023-05-11T14:24:29.341Z,76.37
2023-05-11T14:26:58.190Z,79.84
2023-05-11T14:29:27.026Z,78.81
2023-05-11T14:31:54.478Z,77.67
2023-05-11T14:34:21.968Z,76.36
2023-05-11T14:36:49.402Z,74.73
2023-05-11T14:39:16.929Z,76.27
2023-05-11T14:41:44.366Z,71.02
2023-05-11T14:44:11.827Z,71.30
2023-05-11T14:46:39.674Z,67.50
2023-05-11T14:49:07.568Z,64.40
2023-05-11T14:51:36.301Z,61.26
2023-05-11T14:54:04.959Z,61.45
2023-05-11T14:56:32.462Z,62.07
2023-05-11T14:59:00.036Z,61.85
2023-05-11T15:01:27.612Z,63.74
2023-05-11T15:03:55.022Z,61.79
2023-05-11T15:06:23.650Z,62.27
2023-05-11T15:08:51.402Z,62.43
2023-05-11T15:11:19.028Z,61.97
2023-05-11T15:13:49.230Z,62.06
2023-05-11T15:16:16.896Z,62.63
2023-05-11T15:18:44.486Z,61.74
2023-05-11T15:21:12.102Z,61.34
2023-05-11T15:23:39.598Z,59.96
2023-05-11T15:26:07.102Z,58.66
2023-05-11T15:28:34.771Z,58.54
2023-05-11T15:31:02.230Z,59.78
2023-05-11T15:33:29.730Z,59.57
2023-05-11T15:35:57.288Z,59.58
2023-05-11T15:38:24.710Z,59.30
2023-05-11T15:40:52.321Z,59.89
2023-05-11T15:43:19.667Z,59.08
2023-05-11T15:45:47.318Z,60.14
2023-05-11T15:48:15.262Z,60.65
2023-05-11T15:50:42.722Z,61.30
2023-05-11T15:53:10.122Z,62.45
2023-05-11T15:55:39.129Z,62.78
2023-05-11T15:58:08.372Z,62.08
2023-05-11T16:00:36.155Z,61.50
2023-05-11T16:03:03.802Z,61.34
2023-05-11T16:05:32.680Z,61.56
2023-05-11T16:08:00.223Z,61.24
2023-05-11T16:10:27.739Z,58.43
2023-05-11T16:12:57.674Z,58.37
2023-05-11T16:15:26.587Z,58.69
2023-05-11T16:17:54.080Z,60.08
2023-05-11T16:20:21.849Z,61.59
2023-05-11T16:22:49.260Z,61.30
2023-05-11T16:25:17.518Z,60.20
2023-05-11T16:27:45.054Z,60.08
2023-05-11T16:30:23.150Z,56.75
2023-05-11T16:32:53.716Z,57.10
2023-05-11T16:35:21.464Z,57.44
2023-05-11T16:37:49.169Z,57.77
2023-05-11T16:40:21.378Z,58.57
2023-05-11T16:42:49.400Z,57.92
2023-05-11T16:45:16.915Z,57.35
2023-05-11T16:47:47.419Z,56.14
2023-05-11T16:50:16.531Z,56.43
2023-05-11T16:52:44.202Z,56.18
2023-05-11T16:55:11.993Z,56.31
2023-05-11T16:57:39.398Z,56.71
2023-05-11T17:00:08.553Z,57.58
2023-05-11T17:02:36.564Z,57.82
2023-05-11T17:05:05.714Z,58.44
2023-05-11T17:07:33.782Z,55.63
2023-05-11T17:10:01.297Z,56.30
2023-05-11T17:12:29.666Z,55.54
2023-05-11T17:14:57.738Z,55.60
2023-05-11T17:17:25.347Z,57.34
2023-05-11T17:19:54.360Z,57.49
2023-05-11T17:22:21.759Z,58.05
2023-05-11T17:24:49.267Z,58.66
2023-05-11T17:27:16.844Z,58.21
2023-05-11T17:29:44.532Z,59.01
2023-05-11T17:32:12.136Z,57.50
2023-05-11T17:34:40.214Z,57.81
2023-05-11T17:37:12.636Z,57.75
2023-05-11T17:39:47.224Z,57.77
2023-05-11T17:42:15.538Z,58.38
2023-05-11T17:44:42.917Z,59.35
2023-05-11T17:47:10.439Z,57.17
2023-05-11T17:49:37.844Z,57.19
2023-05-11T17:52:05.636Z,54.96
2023-05-11T17:54:33.213Z,54.87
2023-05-11T17:57:00.984Z,54.72
2023-05-11T17:59:28.402Z,54.66
2023-05-11T18:01:55.961Z,54.64
2023-05-11T18:04:23.445Z,55.28
2023-05-11T18:06:51.290Z,56.15
2023-05-11T18:09:19.771Z,57.10
2023-05-11T18:11:47.248Z,58.05
2023-05-11T18:14:14.707Z,58.34
2023-05-11T18:16:42.277Z,56.71
2023-05-11T18:19:09.930Z,56.06
2023-05-11T18:21:38.157Z,55.88
2023-05-11T18:24:06.348Z,55.23
2023-05-11T18:26:34.095Z,56.37
2023-05-11T18:29:02.169Z,57.54
2023-05-11T18:31:29.925Z,58.14
2023-05-11T18:33:57.489Z,58.45
2023-05-11T18:36:25.077Z,57.12
2023-05-11T18:38:52.704Z,56.56
2023-05-11T18:41:20.855Z,56.74
2023-05-11T18:43:48.485Z,57.10
2023-05-11T18:46:15.957Z,57.41
2023-05-11T18:48:43.436Z,57.75
2023-05-11T18:51:11.115Z,58.27
2023-05-11T18:53:38.586Z,58.85
2023-05-11T18:56:06.143Z,59.86
2023-05-11T18:58:33.869Z,60.81
2023-05-11T19:01:01.377Z,61.19
2023-05-11T19:03:31.807Z,62.40
2023-05-11T19:06:02.127Z,62.60
2023-05-11T19:08:31.604Z,63.11
2023-05-11T19:11:04.947Z,64.66
2023-05-11T19:13:32.770Z,65.88
2023-05-11T19:16:00.179Z,66.13
2023-05-11T19:18:28.665Z,66.84
2023-05-11T19:20:56.283Z,67.28
2023-05-11T19:23:24.099Z,68.51
2023-05-11T19:25:51.745Z,69.59
2023-05-11T19:28:19.475Z,70.21
2023-05-11T19:30:46.907Z,71.55
2023-05-11T19:33:14.838Z,71.71
2023-05-11T19:35:42.442Z,71.96
2023-05-11T19:38:17.419Z,72.74
2023-05-11T19:40:46.547Z,74.97
2023-05-11T19:43:14.836Z,75.51
2023-05-11T19:45:45.501Z,74.70
2023-05-11T19:48:13.959Z,75.39
2023-05-11T19:50:41.656Z,74.85
2023-05-11T19:53:09.133Z,75.88
2023-05-11T19:55:36.492Z,75.96
2023-05-11T19:58:04.155Z,76.56
2023-05-11T20:00:31.772Z,78.05
2023-05-11T20:02:59.591Z,78.96
2023-05-11T20:05:27.252Z,77.99
2023-05-11T20:07:54.783Z,78.23
2023-05-11T20:10:22.329Z,79.58
2023-05-11T20:12:51.357Z,80.37
2023-05-11T20:15:19.044Z,81.60
2023-05-11T20:17:46.753Z,80.63
2023-05-11T20:20:14.426Z,79.71
2023-05-11T20:22:42.300Z,80.38
2023-05-11T20:25:17.532Z,81.09
2023-05-11T20:27:46.064Z,81.17
2023-05-11T20:30:14.124Z,82.79
2023-05-11T20:34:06.790Z,83.55
2023-05-11T20:35:29.870Z,84.79
2023-05-11T20:37:57.344Z,88.54
2023-05-11T20:40:25.722Z,88.88
2023-05-11T20:42:53.143Z,88.73
2023-05-11T20:45:20.786Z,89.76
2023-05-11T20:47:48.368Z,90.31
2023-05-11T20:50:15.953Z,92.04
2023-05-11T20:52:43.528Z,94.85
2023-05-11T20:55:11.172Z,95.90
2023-05-11T20:57:38.689Z,97.05
2023-05-11T21:00:11.005Z,95.17
2023-05-11T21:02:39.077Z,94.13
2023-05-11T21:05:06.963Z,94.08
2023-05-11T21:07:34.558Z,95.33
2023-05-11T21:10:02.195Z,99.73
2023-05-11T21:12:29.754Z,100.00
2023-05-11T21:14:57.385Z,100.00
2023-05-11T21:17:25.006Z,100.00
2023-05-11T21:19:52.489Z,100.00
2023-05-11T21:22:19.953Z,100.00
2023-05-11T21:24:47.469Z,100.00
2023-05-11T21:27:15.152Z,100.00
2023-05-11T21:29:42.557Z,100.00
2023-05-11T21:32:10.373Z,100.00
2023-05-11T21:34:38.496Z,100.00
2023-05-11T21:37:06.122Z,100.00
2023-05-11T21:39:33.652Z,100.00
2023-05-11T21:42:02.860Z,100.00
2023-05-11T21:44:30.471Z,100.00
2023-05-11T21:46:58.282Z,100.00
2023-05-11T21:49:26.355Z,100.00
2023-05-11T21:51:53.938Z,100.00
2023-05-11T21:54:22.540Z,100.00
2023-05-11T21:56:52.138Z,100.00
2023-05-11T21:59:20.074Z,100.00
2023-05-11T22:01:49.268Z,100.00
2023-05-11T22:04:16.823Z,100.00
2023-05-11T22:06:44.368Z,100.00
2023-05-11T22:09:12.118Z,100.00
2023-05-11T22:11:40.073Z,100.00
2023-05-11T22:14:07.597Z,100.00
2023-05-11T22:16:35.169Z,100.00
2023-05-11T22:19:02.619Z,100.00
2023-05-11T22:21:30.238Z,100.00
2023-05-11T22:23:57.932Z,100.00
2023-05-11T22:26:26.629Z,100.00
2023-05-11T22:28:54.161Z,100.00
2023-05-11T22:31:21.829Z,100.00
2023-05-11T22:33:49.285Z,100.00
2023-05-11T22:36:16.733Z,100.00
2023-05-11T22:38:44.198Z,100.00
2023-05-11T22:41:11.785Z,100.00
2023-05-11T22:43:39.197Z,100.00
2023-05-11T22:46:07.094Z,100.00
2023-05-11T22:48:34.613Z,100.00
2023-05-11T22:51:03.959Z,100.00
2023-05-11T22:53:31.701Z,100.00
2023-05-11T22:56:06.476Z,100.00
2023-05-11T22:58:34.074Z,100.00
2023-05-11T23:01:01.828Z,100.00
2023-05-11T23:03:29.454Z,100.00
2023-05-11T23:05:56.811Z,100.00
2023-05-11T23:08:26.609Z,100.00
2023-05-11T23:10:54.277Z,100.00
2023-05-11T23:13:22.568Z,100.00
2023-05-11T23:15:50.524Z,100.00
2023-05-11T23:18:33.434Z,100.00
2023-05-11T23:21:01.032Z,100.00
2023-05-11T23:23:28.518Z,100.00
2023-05-11T23:25:56.080Z,100.00
2023-05-11T23:28:23.461Z,100.00
2023-05-11T23:30:51.608Z,100.00
2023-05-11T23:33:19.171Z,100.00
2023-05-11T23:35:47.934Z,100.00
2023-05-11T23:38:15.383Z,100.00
2023-05-11T23:40:43.270Z,100.00
2023-05-11T23:43:10.627Z,100.00
2023-05-11T23:45:38.110Z,100.00
2023-05-11T23:48:06.263Z,100.00
2023-05-11T23:50:34.033Z,100.00
2023-05-11T23:53:01.603Z,100.00
2023-05-11T23:55:29.051Z,100.00
2023-05-11T23:57:58.774Z,100.00
